FR-0230 weather

Hôtel Du Château Heliport
Divonne, Rhône Alpes, France

Public forecast

Using degrees Celsius for public forecast. Weather courtesy of forecast.io.

METAR (pilot weather report)

Closest report is Geneva Cointrin International Airport, 7.3 nm (13.5 km) S. Retrieved 2019/09/17 03:20 UTC (35 minutes ago):

LSGG 170320Z AUTO VRB02KT CAVOK 14/13 Q1019 NOSIG

TAF (pilot weather forecast)

Closest forecast is Geneva Cointrin International Airport, 7.3 nm (13.5 km) S. Retrieved 2019/09/17 03:39 UTC (16 minutes ago):

TAF LSGG 170225Z 1703/1809 VRB03KT CAVOK TX27/1715Z TN14/1705Z TN14/1805Z BECMG 1713/1715 05010KT 9999 FEW050